createdAt,value
2018-07-17T00:00:28.324Z,77.49
2018-07-17T00:02:54.642Z,77.42
2018-07-17T00:05:20.954Z,77.36
2018-07-17T00:07:47.279Z,77.82
2018-07-17T00:10:13.599Z,78.04
2018-07-17T00:12:40.003Z,78.25
2018-07-17T00:15:06.315Z,78.80
2018-07-17T00:17:32.630Z,78.28
2018-07-17T00:19:58.955Z,77.11
2018-07-17T00:22:25.271Z,77.31
2018-07-17T00:24:51.584Z,76.86
2018-07-17T00:27:17.895Z,73.99
2018-07-17T00:29:44.206Z,73.21
2018-07-17T00:32:10.525Z,74.01
2018-07-17T00:34:36.858Z,73.88
2018-07-17T00:37:03.218Z,74.13
2018-07-17T00:39:31.523Z,75.00
2018-07-17T00:41:55.997Z,76.12
2018-07-17T00:44:22.593Z,76.94
2018-07-17T00:46:48.906Z,78.09
2018-07-17T00:49:15.221Z,78.34
2018-07-17T00:51:41.543Z,77.74
2018-07-17T00:54:07.850Z,78.27
2018-07-17T00:56:34.166Z,78.86
2018-07-17T00:59:00.471Z,79.22
2018-07-17T01:01:26.783Z,79.86
2018-07-17T01:03:53.098Z,80.45
2018-07-17T01:06:19.413Z,80.50
2018-07-17T01:08:45.730Z,80.66
2018-07-17T01:11:12.043Z,80.71
2018-07-17T01:13:38.357Z,80.43
2018-07-17T01:16:04.665Z,80.17
2018-07-17T01:18:30.980Z,79.11
2018-07-17T01:20:57.292Z,78.85
2018-07-17T01:23:23.643Z,78.70
2018-07-17T01:25:49.961Z,78.42
2018-07-17T01:28:16.273Z,79.07
2018-07-17T01:30:42.633Z,79.72
2018-07-17T01:33:08.959Z,80.01
2018-07-17T01:35:35.267Z,80.36
2018-07-17T01:38:01.578Z,80.30
2018-07-17T01:40:27.892Z,80.85
2018-07-17T01:42:54.224Z,80.85
2018-07-17T01:45:20.512Z,81.24
2018-07-17T01:47:46.820Z,80.67
2018-07-17T01:50:13.133Z,80.80
2018-07-17T01:52:39.440Z,81.07
2018-07-17T01:55:05.756Z,81.19
2018-07-17T01:57:32.067Z,81.73
2018-07-17T01:59:58.384Z,81.83
2018-07-17T02:02:24.697Z,81.82
2018-07-17T02:04:51.081Z,81.41
2018-07-17T02:07:17.320Z,81.05
2018-07-17T02:09:43.636Z,80.42
2018-07-17T02:12:09.943Z,81.10
2018-07-17T02:14:36.300Z,81.02
2018-07-17T02:17:02.612Z,81.42
2018-07-17T02:19:28.931Z,81.45
2018-07-17T02:21:55.249Z,81.59
2018-07-17T02:24:21.555Z,81.41
2018-07-17T02:26:47.874Z,82.28
2018-07-17T02:29:14.187Z,82.09
2018-07-17T02:31:40.516Z,82.63
2018-07-17T02:34:06.826Z,83.36
2018-07-17T02:36:33.145Z,82.35
2018-07-17T02:38:59.461Z,82.58
2018-07-17T02:41:25.777Z,82.80
2018-07-17T02:43:52.088Z,82.21
2018-07-17T02:46:18.402Z,82.09
2018-07-17T02:48:44.717Z,81.66
2018-07-17T02:51:11.025Z,81.06
2018-07-17T02:53:37.337Z,79.84
2018-07-17T02:56:03.666Z,79.73
2018-07-17T02:58:29.975Z,79.67
2018-07-17T03:00:56.289Z,79.72
2018-07-17T03:03:22.602Z,81.04
2018-07-17T03:05:48.916Z,81.51
2018-07-17T03:08:15.239Z,81.11
2018-07-17T03:10:41.558Z,80.05
2018-07-17T03:13:07.877Z,79.62
2018-07-17T03:15:34.196Z,80.14
2018-07-17T03:18:00.508Z,80.52
2018-07-17T03:20:26.825Z,81.37
2018-07-17T03:22:53.128Z,81.62
2018-07-17T03:25:19.436Z,81.04
2018-07-17T03:27:45.749Z,81.35
2018-07-17T03:30:12.063Z,81.99
2018-07-17T03:32:38.377Z,82.48
2018-07-17T03:35:04.691Z,83.00
2018-07-17T03:37:31.005Z,82.98
2018-07-17T03:39:57.333Z,82.96
2018-07-17T03:42:23.651Z,82.62
2018-07-17T03:44:49.963Z,83.27
2018-07-17T03:47:16.314Z,84.17
2018-07-17T03:49:42.626Z,83.64
2018-07-17T03:52:08.940Z,84.11
2018-07-17T03:54:35.249Z,84.51
2018-07-17T03:57:01.568Z,85.23
2018-07-17T03:59:27.883Z,85.79
2018-07-17T04:01:54.203Z,85.62
2018-07-17T04:04:20.528Z,85.28
2018-07-17T04:06:46.862Z,85.72
2018-07-17T04:09:13.156Z,85.85
2018-07-17T04:11:39.468Z,85.79
2018-07-17T04:14:05.786Z,86.28
2018-07-17T04:16:32.096Z,86.60
2018-07-17T04:18:58.413Z,86.90
2018-07-17T04:21:24.728Z,86.73
2018-07-17T04:23:51.039Z,86.31
2018-07-17T04:26:17.356Z,86.79
2018-07-17T04:28:43.762Z,87.22
2018-07-17T04:31:10.064Z,87.40
2018-07-17T04:33:36.376Z,87.40
2018-07-17T04:36:02.695Z,87.80
2018-07-17T04:38:29.057Z,88.32
2018-07-17T04:40:55.365Z,89.82
2018-07-17T04:43:21.677Z,95.30
2018-07-17T04:45:47.995Z,91.69
2018-07-17T04:48:14.313Z,94.62
2018-07-17T04:50:40.635Z,96.77
2018-07-17T04:53:06.949Z,97.00
2018-07-17T04:55:33.280Z,94.59
2018-07-17T04:57:59.589Z,94.73
2018-07-17T05:00:25.947Z,95.11
2018-07-17T05:02:52.263Z,95.07
2018-07-17T05:05:18.619Z,98.05
2018-07-17T05:07:44.939Z,98.22
2018-07-17T05:10:11.265Z,98.43
2018-07-17T05:12:37.584Z,100.00
2018-07-17T05:15:03.896Z,99.35
2018-07-17T05:17:30.261Z,98.19
2018-07-17T05:19:56.573Z,97.79
2018-07-17T05:22:22.886Z,98.85
2018-07-17T05:24:49.203Z,100.00
2018-07-17T05:27:15.513Z,100.00
2018-07-17T05:29:41.859Z,98.24
2018-07-17T05:32:08.172Z,99.13
2018-07-17T05:34:34.485Z,100.00
2018-07-17T05:37:00.804Z,100.00
2018-07-17T05:39:27.124Z,100.00
2018-07-17T05:41:53.441Z,99.55
2018-07-17T05:44:19.763Z,100.00
2018-07-17T05:46:46.082Z,100.00
2018-07-17T05:49:12.402Z,100.00
2018-07-17T05:51:38.712Z,100.00
2018-07-17T05:54:05.032Z,100.00
2018-07-17T05:56:31.349Z,100.00
2018-07-17T05:58:57.666Z,100.00
2018-07-17T06:01:23.980Z,100.00
2018-07-17T06:03:50.305Z,100.00
2018-07-17T06:06:16.630Z,100.00
2018-07-17T06:08:42.987Z,100.00
2018-07-17T06:11:09.338Z,100.00
2018-07-17T06:13:35.653Z,100.00
2018-07-17T06:16:02.013Z,100.00
2018-07-17T06:18:28.323Z,100.00
2018-07-17T06:20:54.652Z,100.00
2018-07-17T06:23:20.994Z,100.00
2018-07-17T06:25:47.307Z,100.00
2018-07-17T06:28:13.617Z,100.00
2018-07-17T06:30:39.933Z,100.00
2018-07-17T06:33:06.260Z,100.00
2018-07-17T06:35:32.565Z,100.00
2018-07-17T06:37:58.888Z,100.00
2018-07-17T06:40:25.201Z,100.00
2018-07-17T06:42:51.512Z,100.00
2018-07-17T06:45:17.824Z,100.00
2018-07-17T06:47:44.141Z,100.00
2018-07-17T06:50:10.516Z,100.00
2018-07-17T06:52:36.781Z,100.00
2018-07-17T06:55:03.102Z,100.00
2018-07-17T06:57:29.471Z,100.00
2018-07-17T06:59:55.757Z,100.00
2018-07-17T07:02:22.070Z,100.00
2018-07-17T07:04:48.394Z,100.00
2018-07-17T07:07:14.717Z,100.00
2018-07-17T07:09:41.030Z,100.00
2018-07-17T07:12:07.370Z,100.00
2018-07-17T07:14:33.689Z,100.00
2018-07-17T07:17:01.109Z,100.00
2018-07-17T07:19:27.420Z,100.00
2018-07-17T07:21:53.729Z,100.00
2018-07-17T07:24:20.057Z,100.00
2018-07-17T07:26:46.384Z,100.00
2018-07-17T07:29:12.708Z,100.00
2018-07-17T07:31:39.024Z,100.00
2018-07-17T07:34:05.337Z,100.00
2018-07-17T07:36:31.656Z,100.00
2018-07-17T07:38:57.964Z,100.00
2018-07-17T07:41:24.276Z,100.00
2018-07-17T07:43:50.664Z,100.00
2018-07-17T07:46:16.992Z,100.00
2018-07-17T07:48:43.312Z,100.00
2018-07-17T07:51:09.635Z,100.00
2018-07-17T07:53:35.951Z,100.00
2018-07-17T07:56:02.270Z,100.00
2018-07-17T07:58:28.580Z,100.00
2018-07-17T08:00:54.895Z,100.00
2018-07-17T08:03:21.221Z,100.00
2018-07-17T08:05:47.550Z,100.00
2018-07-17T08:08:13.864Z,100.00
2018-07-17T08:10:40.223Z,100.00
2018-07-17T08:13:06.595Z,100.00
2018-07-17T08:15:32.957Z,100.00
2018-07-17T08:17:59.274Z,100.00
2018-07-17T08:20:25.590Z,100.00
2018-07-17T08:22:51.916Z,100.00
2018-07-17T08:25:18.225Z,100.00
2018-07-17T08:27:44.538Z,100.00
2018-07-17T08:30:10.913Z,100.00
2018-07-17T08:32:37.269Z,100.00
2018-07-17T08:35:03.633Z,100.00
2018-07-17T08:37:29.953Z,100.00
2018-07-17T08:39:56.454Z,100.00
2018-07-17T08:42:22.703Z,100.00
2018-07-17T08:44:49.047Z,100.00
2018-07-17T08:47:15.372Z,100.00
2018-07-17T08:49:41.685Z,100.00
2018-07-17T08:52:08.005Z,100.00
2018-07-17T08:54:34.333Z,100.00
2018-07-17T08:57:00.955Z,100.00
2018-07-17T08:59:27.268Z,100.00
2018-07-17T09:01:53.589Z,100.00
2018-07-17T09:04:19.901Z,100.00
2018-07-17T09:06:46.217Z,100.00
2018-07-17T09:09:12.535Z,100.00
2018-07-17T09:11:38.856Z,100.00
2018-07-17T09:14:05.177Z,100.00
2018-07-17T09:16:31.489Z,100.00
2018-07-17T09:18:57.807Z,100.00
2018-07-17T09:21:24.177Z,100.00
2018-07-17T09:23:50.439Z,100.00
2018-07-17T09:26:16.755Z,100.00
2018-07-17T09:28:43.074Z,100.00
2018-07-17T09:31:09.395Z,100.00
2018-07-17T09:33:35.768Z,100.00
2018-07-17T09:36:02.050Z,100.00
2018-07-17T09:38:28.365Z,100.00
2018-07-17T09:40:54.740Z,100.00
2018-07-17T09:43:21.056Z,100.00
2018-07-17T09:45:47.404Z,100.00
2018-07-17T09:48:13.718Z,100.00
2018-07-17T09:50:40.098Z,100.00
2018-07-17T09:53:06.453Z,100.00
2018-07-17T09:55:32.759Z,100.00
2018-07-17T09:57:59.133Z,100.00
2018-07-17T10:00:25.445Z,100.00
2018-07-17T10:02:51.757Z,100.00
2018-07-17T10:05:18.101Z,100.00
2018-07-17T10:07:44.416Z,100.00
2018-07-17T10:10:10.749Z,100.00
2018-07-17T10:12:37.116Z,100.00
2018-07-17T10:15:03.439Z,100.00
2018-07-17T10:17:29.790Z,100.00
2018-07-17T10:19:56.112Z,100.00
2018-07-17T10:22:22.431Z,100.00
2018-07-17T10:24:48.738Z,100.00
2018-07-17T10:27:15.056Z,100.00
2018-07-17T10:29:41.373Z,100.00
2018-07-17T10:32:07.730Z,100.00
2018-07-17T10:34:34.046Z,100.00
2018-07-17T10:37:00.361Z,100.00
2018-07-17T10:39:26.737Z,100.00
2018-07-17T10:41:53.050Z,100.00
2018-07-17T10:44:19.365Z,100.00
2018-07-17T10:46:45.727Z,100.00
2018-07-17T10:49:12.078Z,100.00
2018-07-17T10:51:38.435Z,100.00
2018-07-17T10:54:04.710Z,100.00
2018-07-17T10:56:31.027Z,100.00
2018-07-17T10:58:57.448Z,100.00
2018-07-17T11:01:23.776Z,100.00
2018-07-17T11:03:50.080Z,100.00
2018-07-17T11:06:16.397Z,100.00
2018-07-17T11:08:42.708Z,100.00
2018-07-17T11:11:09.052Z,100.00
2018-07-17T11:13:35.365Z,100.00
2018-07-17T11:16:01.681Z,100.00
2018-07-17T11:18:27.999Z,100.00
2018-07-17T11:20:54.329Z,100.00
2018-07-17T11:23:20.646Z,100.00
2018-07-17T11:25:46.961Z,100.00
2018-07-17T11:28:13.277Z,94.29
2018-07-17T11:30:39.593Z,99.18
2018-07-17T11:33:05.908Z,100.00
2018-07-17T11:35:32.221Z,100.00
2018-07-17T11:37:58.532Z,100.00
2018-07-17T11:40:24.846Z,100.00
2018-07-17T11:42:51.157Z,100.00
2018-07-17T11:45:17.474Z,100.00
2018-07-17T11:47:43.849Z,100.00
2018-07-17T11:50:10.115Z,100.00
2018-07-17T11:52:36.430Z,95.96
2018-07-17T11:55:02.785Z,93.98
2018-07-17T11:57:29.148Z,93.13
2018-07-17T11:59:55.455Z,91.09
2018-07-17T12:02:21.767Z,93.36
2018-07-17T12:04:48.087Z,91.79
2018-07-17T12:07:14.435Z,92.90
2018-07-17T12:09:40.747Z,92.15
2018-07-17T12:12:07.107Z,95.37
2018-07-17T12:14:33.455Z,94.65
2018-07-17T12:16:59.770Z,93.90
2018-07-17T12:19:26.085Z,92.65
2018-07-17T12:21:52.395Z,95.65
2018-07-17T12:24:18.717Z,98.97
2018-07-17T12:26:45.037Z,99.95
2018-07-17T12:29:11.381Z,100.00
2018-07-17T12:31:37.703Z,100.00
2018-07-17T12:34:04.030Z,100.00
2018-07-17T12:36:30.341Z,100.00
2018-07-17T12:38:56.658Z,100.00
2018-07-17T12:41:22.977Z,100.00
2018-07-17T12:43:49.289Z,100.00
2018-07-17T12:46:15.601Z,100.00
2018-07-17T12:48:41.962Z,100.00
2018-07-17T12:51:08.280Z,100.00
2018-07-17T12:53:34.610Z,100.00
2018-07-17T12:56:00.969Z,100.00
2018-07-17T12:58:27.294Z,100.00
2018-07-17T13:00:53.609Z,100.00
2018-07-17T13:03:19.938Z,100.00
2018-07-17T13:05:46.293Z,100.00
2018-07-17T13:08:12.607Z,100.00
2018-07-17T13:10:38.915Z,100.00
2018-07-17T13:13:05.242Z,100.00
2018-07-17T13:15:31.569Z,100.00
2018-07-17T13:17:58.025Z,100.00
2018-07-17T13:20:24.210Z,100.00
2018-07-17T13:22:50.527Z,100.00
2018-07-17T13:25:16.841Z,100.00
2018-07-17T13:27:43.166Z,100.00
2018-07-17T13:30:09.497Z,100.00
2018-07-17T13:32:35.813Z,100.00
2018-07-17T13:35:02.135Z,100.00
2018-07-17T13:37:28.454Z,100.00
2018-07-17T13:39:54.776Z,100.00
2018-07-17T13:42:21.096Z,100.00
2018-07-17T13:44:47.473Z,100.00
2018-07-17T13:47:13.722Z,100.00
2018-07-17T13:49:40.077Z,100.00
2018-07-17T13:52:06.445Z,100.00
2018-07-17T13:54:32.708Z,100.00
2018-07-17T13:56:59.017Z,100.00
2018-07-17T13:59:25.378Z,100.00
2018-07-17T14:01:51.688Z,100.00
2018-07-17T14:04:18.079Z,100.00
2018-07-17T14:06:44.407Z,100.00
2018-07-17T14:09:10.682Z,100.00
2018-07-17T14:11:36.993Z,100.00
2018-07-17T14:14:03.312Z,100.00
2018-07-17T14:16:29.629Z,100.00
2018-07-17T14:18:55.953Z,100.00
2018-07-17T14:21:22.276Z,100.00
2018-07-17T14:23:48.726Z,100.00
2018-07-17T14:26:14.966Z,100.00
2018-07-17T14:28:41.284Z,100.00
2018-07-17T14:31:07.640Z,100.00
2018-07-17T14:33:33.976Z,100.00
2018-07-17T14:36:00.289Z,99.33
2018-07-17T14:38:26.604Z,97.46
2018-07-17T14:40:52.946Z,96.73
2018-07-17T14:43:19.257Z,96.69
2018-07-17T14:45:45.567Z,91.04
2018-07-17T14:48:11.914Z,88.58
2018-07-17T14:50:38.195Z,87.22
2018-07-17T14:53:04.508Z,86.29
2018-07-17T14:55:30.861Z,83.33
2018-07-17T14:57:57.180Z,81.41
2018-07-17T15:00:23.541Z,79.89
2018-07-17T15:02:49.855Z,79.71
2018-07-17T15:05:16.169Z,78.85
2018-07-17T15:07:42.503Z,74.94
2018-07-17T15:10:08.816Z,71.46
2018-07-17T15:12:35.132Z,71.37
2018-07-17T15:15:01.443Z,71.48
2018-07-17T15:17:27.825Z,70.65
2018-07-17T15:19:54.137Z,70.23
2018-07-17T15:22:20.498Z,69.66
2018-07-17T15:24:46.764Z,69.53
2018-07-17T15:27:13.084Z,69.05
2018-07-17T15:29:39.410Z,69.02
2018-07-17T15:32:05.779Z,69.13
2018-07-17T15:34:32.060Z,69.30
2018-07-17T15:36:58.433Z,68.40
2018-07-17T15:39:24.744Z,68.07
2018-07-17T15:41:51.063Z,68.26
2018-07-17T15:44:17.402Z,68.40
2018-07-17T15:46:43.713Z,68.20
2018-07-17T15:49:10.033Z,68.21
2018-07-17T15:51:36.345Z,68.31
2018-07-17T15:54:02.715Z,68.54
2018-07-17T15:56:28.971Z,68.38
2018-07-17T15:58:55.288Z,67.97
2018-07-17T16:01:21.600Z,67.76
2018-07-17T16:03:47.922Z,68.02
2018-07-17T16:06:14.297Z,68.54
2018-07-17T16:08:40.591Z,68.34
2018-07-17T16:11:06.916Z,68.03
2018-07-17T16:13:33.332Z,67.88
2018-07-17T16:15:59.557Z,67.89
2018-07-17T16:18:25.879Z,67.84
2018-07-17T16:20:52.192Z,68.71
2018-07-17T16:23:18.510Z,68.71
2018-07-17T16:25:44.826Z,68.62
2018-07-17T16:28:11.137Z,68.92
2018-07-17T16:30:37.580Z,67.67
2018-07-17T16:33:04.125Z,69.25
2018-07-17T16:35:30.444Z,70.97
2018-07-17T16:37:56.763Z,72.04
2018-07-17T16:40:23.073Z,73.06
2018-07-17T16:42:49.403Z,74.21
2018-07-17T16:45:15.754Z,74.54
2018-07-17T16:47:42.058Z,74.77
2018-07-17T16:50:08.371Z,74.49
2018-07-17T16:52:34.698Z,74.09
2018-07-17T16:55:01.058Z,74.20
2018-07-17T16:57:27.384Z,73.98
2018-07-17T16:59:53.746Z,74.62
2018-07-17T17:02:20.074Z,74.62
2018-07-17T17:04:46.402Z,74.68
2018-07-17T17:07:12.747Z,74.52
2018-07-17T17:09:39.119Z,74.75
2018-07-17T17:12:05.434Z,75.34
2018-07-17T17:14:31.756Z,75.78
2018-07-17T17:16:58.081Z,76.46
2018-07-17T17:19:24.398Z,77.44
2018-07-17T17:21:50.729Z,77.55
2018-07-17T17:24:17.184Z,77.49
2018-07-17T17:26:43.396Z,77.36
2018-07-17T17:29:09.754Z,76.60
2018-07-17T17:31:36.105Z,75.68
2018-07-17T17:34:02.429Z,75.74
2018-07-17T17:36:28.769Z,76.15
2018-07-17T17:38:55.058Z,75.60
2018-07-17T17:41:21.374Z,76.20
2018-07-17T17:43:47.690Z,76.36
2018-07-17T17:46:14.022Z,76.42
2018-07-17T17:48:40.332Z,76.17
2018-07-17T17:51:07.953Z,77.96
2018-07-17T17:53:33.002Z,78.42
2018-07-17T17:55:59.323Z,78.96
2018-07-17T17:58:25.953Z,79.82
2018-07-17T18:00:52.265Z,80.81
2018-07-17T18:03:18.617Z,81.36
2018-07-17T18:05:44.936Z,81.68
2018-07-17T18:08:11.256Z,82.42
2018-07-17T18:10:37.576Z,82.85
2018-07-17T18:13:03.905Z,83.12
2018-07-17T18:15:30.233Z,83.36
2018-07-17T18:17:56.561Z,83.21
2018-07-17T18:20:22.873Z,83.91
2018-07-17T18:22:49.200Z,84.02
2018-07-17T18:25:15.908Z,84.80
2018-07-17T18:27:42.233Z,85.13
2018-07-17T18:30:08.604Z,85.10
2018-07-17T18:32:34.923Z,85.05
2018-07-17T18:35:01.238Z,85.23
2018-07-17T18:37:27.560Z,84.72
2018-07-17T18:39:56.030Z,84.44
2018-07-17T18:42:22.347Z,84.87
2018-07-17T18:44:48.658Z,85.45
2018-07-17T18:47:14.981Z,84.91
2018-07-17T18:49:41.295Z,84.21
2018-07-17T18:52:07.721Z,82.23
2018-07-17T18:54:34.022Z,81.83
2018-07-17T18:57:00.333Z,80.26
2018-07-17T18:59:26.657Z,78.69
2018-07-17T19:01:52.967Z,78.03
2018-07-17T19:04:19.288Z,77.21
2018-07-17T19:06:45.598Z,77.56
2018-07-17T19:09:11.927Z,77.80
2018-07-17T19:11:38.250Z,77.83
2018-07-17T19:14:04.607Z,78.36
2018-07-17T19:16:31.007Z,78.53
2018-07-17T19:18:57.321Z,79.01
2018-07-17T19:21:23.645Z,79.75
2018-07-17T19:23:49.952Z,80.37
2018-07-17T19:26:16.268Z,80.50
2018-07-17T19:28:42.616Z,81.36
2018-07-17T19:31:08.933Z,79.15
2018-07-17T19:33:35.258Z,79.08
2018-07-17T19:36:01.588Z,79.54
2018-07-17T19:38:27.900Z,81.28
2018-07-17T19:40:54.293Z,81.33
2018-07-17T19:43:20.564Z,81.35
2018-07-17T19:45:46.880Z,81.32
2018-07-17T19:48:13.189Z,81.47
2018-07-17T19:50:39.500Z,82.17
2018-07-17T19:53:05.817Z,83.01
2018-07-17T19:55:32.124Z,83.49
2018-07-17T19:57:58.435Z,83.89
2018-07-17T20:00:24.764Z,84.68
2018-07-17T20:02:51.093Z,85.24
2018-07-17T20:05:17.432Z,85.67
2018-07-17T20:07:43.759Z,84.91
2018-07-17T20:10:10.112Z,85.47
2018-07-17T20:12:36.436Z,85.55
2018-07-17T20:15:02.783Z,85.96
2018-07-17T20:17:29.110Z,86.47
2018-07-17T20:19:55.448Z,86.32
2018-07-17T20:22:21.774Z,86.88
2018-07-17T20:24:48.151Z,86.77
2018-07-17T20:27:14.419Z,86.97
2018-07-17T20:29:40.732Z,87.14
2018-07-17T20:32:07.045Z,87.32
2018-07-17T20:34:33.375Z,87.53
2018-07-17T20:36:59.698Z,86.94
2018-07-17T20:39:26.013Z,87.01
2018-07-17T20:41:52.341Z,87.66
2018-07-17T20:44:18.694Z,86.09
2018-07-17T20:46:45.016Z,83.29
2018-07-17T20:49:11.313Z,82.12
2018-07-17T20:51:37.629Z,81.69
2018-07-17T20:54:03.936Z,82.99
2018-07-17T20:56:30.261Z,83.41
2018-07-17T20:58:56.579Z,85.20
2018-07-17T21:01:22.924Z,85.94
2018-07-17T21:03:49.265Z,86.59
2018-07-17T21:06:15.622Z,86.68
2018-07-17T21:08:41.938Z,87.56
2018-07-17T21:11:08.284Z,87.84
2018-07-17T21:13:34.629Z,88.45
2018-07-17T21:16:00.970Z,88.84
2018-07-17T21:18:27.314Z,89.24
2018-07-17T21:20:53.654Z,89.89
2018-07-17T21:23:19.970Z,89.75
2018-07-17T21:25:46.298Z,89.93
2018-07-17T21:28:12.612Z,90.40
2018-07-17T21:30:38.992Z,91.16
2018-07-17T21:33:05.312Z,91.43
2018-07-17T21:35:31.671Z,91.38
2018-07-17T21:37:57.986Z,91.70
2018-07-17T21:40:24.426Z,91.70
2018-07-17T21:42:50.690Z,91.96
2018-07-17T21:45:17.013Z,92.36
2018-07-17T21:47:43.405Z,92.36
2018-07-17T21:50:09.723Z,92.18
2018-07-17T21:52:36.047Z,92.47
2018-07-17T21:55:02.389Z,92.48
2018-07-17T21:57:28.728Z,92.76
2018-07-17T21:59:55.046Z,93.08
2018-07-17T22:02:21.394Z,92.91
2018-07-17T22:04:47.735Z,93.36
2018-07-17T22:07:14.058Z,93.19
2018-07-17T22:09:40.376Z,93.32
2018-07-17T22:12:06.695Z,93.74
2018-07-17T22:14:33.036Z,93.77
2018-07-17T22:16:59.355Z,93.75
2018-07-17T22:19:25.676Z,94.17
2018-07-17T22:21:51.999Z,94.55
2018-07-17T22:24:18.310Z,94.81
2018-07-17T22:26:44.633Z,94.67
2018-07-17T22:29:10.950Z,95.29
2018-07-17T22:31:37.271Z,95.49
2018-07-17T22:34:03.586Z,95.71
2018-07-17T22:36:29.936Z,96.17
2018-07-17T22:38:56.271Z,96.36
2018-07-17T22:41:22.611Z,96.56
2018-07-17T22:43:48.947Z,96.81
2018-07-17T22:46:15.293Z,96.93
2018-07-17T22:48:41.611Z,97.09
2018-07-17T22:51:07.930Z,96.91
2018-07-17T22:53:34.251Z,97.79
2018-07-17T22:56:00.571Z,97.83
2018-07-17T22:58:26.887Z,97.71
2018-07-17T23:00:53.224Z,97.49
2018-07-17T23:03:19.568Z,97.40
2018-07-17T23:05:45.912Z,97.65
2018-07-17T23:08:12.252Z,97.55
2018-07-17T23:10:38.600Z,97.57
2018-07-17T23:13:04.981Z,97.45
2018-07-17T23:15:31.329Z,97.89
2018-07-17T23:17:57.716Z,97.84
2018-07-17T23:20:24.025Z,98.31
2018-07-17T23:22:50.368Z,100.00
2018-07-17T23:25:16.763Z,98.55
2018-07-17T23:27:43.103Z,94.24
2018-07-17T23:30:09.489Z,91.94
2018-07-17T23:32:35.803Z,89.79
2018-07-17T23:35:02.120Z,88.47
2018-07-17T23:37:28.435Z,88.04
2018-07-17T23:39:54.754Z,87.57
2018-07-17T23:42:21.091Z,85.89
2018-07-17T23:44:47.437Z,85.01
2018-07-17T23:47:13.753Z,84.18
2018-07-17T23:49:40.074Z,83.53
2018-07-17T23:52:06.412Z,83.10
2018-07-17T23:54:32.757Z,82.82
2018-07-17T23:56:59.081Z,82.86
2018-07-17T23:59:25.396Z,82.67
